Time;durP1;ratioP1;P1;durP2;ratioP2;P2;SDS_P1;SDS_P2;PMS_P1;PMS_P2;Temp;Humidity;BMP_temperature;BMP_pressure;BME280_temperature;BME280_humidity;BME280_pressure;Samples;Min_cycle;Max_cycle;Signal;HPM_P1;HPM_P2
2022/10/24 00:00:44;;;;;;;6.35;4.92;;;;;;;11.34;96.61;98275.92;1791134;79;21007;-59
2022/10/24 00:03:11;;;;;;;5.95;4.85;;;;;;;11.36;95.23;98275.08;1788155;79;20955;-58
2022/10/24 00:05:43;;;;;;;5.87;4.55;;;;;;;11.40;95.56;98281.48;1802160;79;21204;-58
2022/10/24 00:08:10;;;;;;;7.08;5.10;;;;;;;11.39;95.35;98271.83;1795449;79;20882;-60
2022/10/24 00:10:38;;;;;;;6.65;4.80;;;;;;;11.38;94.98;98267.55;1786427;79;20892;-60
2022/10/24 00:13:06;;;;;;;5.85;4.72;;;;;;;11.38;94.84;98270.23;1799298;79;20936;-60
2022/10/24 00:15:35;;;;;;;5.67;4.17;;;;;;;11.37;94.24;98274.81;1798352;79;20954;-59
2022/10/24 00:18:04;;;;;;;5.67;4.83;;;;;;;11.39;94.01;98279.88;1792129;79;20908;-59
2022/10/24 00:20:31;;;;;;;6.08;4.70;;;;;;;11.39;93.98;98269.16;1788897;79;20956;-59
2022/10/24 00:22:59;;;;;;;4.97;4.40;;;;;;;11.37;93.93;98266.77;1790352;79;21026;-59
2022/10/24 00:25:27;;;;;;;5.85;4.83;;;;;;;11.37;93.89;98274.02;1776505;79;20912;-60
2022/10/24 00:27:55;;;;;;;5.47;4.50;;;;;;;11.34;93.67;98282.62;1804970;79;21549;-60
2022/10/24 00:30:22;;;;;;;6.25;4.30;;;;;;;11.36;93.42;98277.77;1797704;79;22090;-59
2022/10/24 00:32:50;;;;;;;4.80;4.30;;;;;;;11.35;93.25;98272.16;1796174;79;20868;-60
2022/10/24 00:35:18;;;;;;;5.92;4.45;;;;;;;11.35;93.13;98275.62;1785479;79;20872;-59
2022/10/24 00:37:45;;;;;;;6.25;4.65;;;;;;;11.35;92.98;98284.23;1796665;79;20935;-60
2022/10/24 00:40:15;;;;;;;5.17;4.60;;;;;;;11.34;92.96;98283.43;1796454;79;21022;-59
2022/10/24 00:42:42;;;;;;;5.92;4.60;;;;;;;11.35;92.85;98285.58;1805273;78;21193;-59
2022/10/24 00:45:57;;;;;;;5.03;4.53;;;;;;;11.32;92.73;98282.12;1781912;79;21015;-59
2022/10/24 00:48:43;;;;;;;6.47;4.20;;;;;;;11.32;92.82;98279.44;1723638;82;21075;-58
2022/10/24 00:51:26;;;;;;;5.70;4.83;;;;;;;11.27;92.82;98277.63;1804113;79;21142;-59
2022/10/24 00:53:58;;;;;;;6.55;5.12;;;;;;;11.26;92.88;98279.26;1797762;79;20940;-60
2022/10/24 00:56:29;;;;;;;5.20;4.70;;;;;;;11.25;92.82;98279.80;1788692;79;21712;-57
2022/10/24 00:58:58;;;;;;;9.68;5.15;;;;;;;11.26;92.79;98275.23;1796028;79;20972;-57
2022/10/24 01:01:25;;;;;;;7.78;4.55;;;;;;;11.28;92.80;98286.47;1792808;79;21392;-58
2022/10/24 01:03:52;;;;;;;6.45;4.90;;;;;;;11.27;92.68;98280.30;1791638;79;20894;-57
2022/10/24 01:06:51;;;;;;;7.62;5.28;;;;;;;11.32;92.73;98279.44;1794430;79;20919;-58
2022/10/24 01:09:37;;;;;;;8.68;5.65;;;;;;;11.34;92.36;98277.27;1789315;79;21225;-59
2022/10/24 01:12:27;;;;;;;6.08;5.45;;;;;;;11.37;92.26;98272.67;1791610;79;20878;-59
2022/10/24 01:15:25;;;;;;;8.50;5.40;;;;;;;11.37;92.13;98274.02;1754788;80;21471;-59
2022/10/24 01:18:16;;;;;;;6.53;4.80;;;;;;;11.35;92.09;98273.51;1777977;78;20923;-58
2022/10/24 01:21:23;;;;;;;6.15;5.10;;;;;;;11.35;92.11;98276.19;1792150;79;21042;-58
2022/10/24 01:24:16;;;;;;;6.78;5.78;;;;;;;11.36;92.13;98271.87;1777880;79;21080;-58
2022/10/24 01:26:59;;;;;;;8.03;5.60;;;;;;;11.37;92.02;98265.43;1791420;79;21059;-58
2022/10/24 01:30:02;;;;;;;6.72;6.03;;;;;;;11.37;91.92;98256.58;1778231;79;20955;-57
2022/10/24 01:32:38;;;;;;;7.78;5.40;;;;;;;11.34;91.81;98257.95;1792743;79;20896;-58
2022/10/24 01:35:20;;;;;;;;;;;;;;;11.33;91.69;98254.23;1797180;79;21008;-58
2022/10/24 01:38:09;;;;;;;6.08;5.33;;;;;;;11.32;91.76;98247.26;1786644;79;21297;-58
2022/10/24 01:41:03;;;;;;;7.55;5.62;;;;;;;11.28;91.86;98247.59;1795639;79;20919;-58
2022/10/24 01:43:51;;;;;;;7.58;6.10;;;;;;;11.27;91.88;98247.31;1785055;78;21391;-58
2022/10/24 01:46:22;;;;;;;7.67;5.87;;;;;;;11.26;91.85;98251.10;1797119;79;20980;-58
2022/10/24 01:48:59;;;;;;;8.70;6.08;;;;;;;11.22;91.91;98246.04;1793966;79;22381;-59
2022/10/24 01:51:26;;;;;;;6.53;5.45;;;;;;;11.23;91.96;98248.99;1789510;78;21244;-58
2022/10/24 01:53:55;;;;;;;6.72;6.05;;;;;;;11.19;92.07;98252.77;1779416;79;20923;-58
2022/10/24 01:56:25;;;;;;;7.03;6.30;;;;;;;11.19;92.15;98251.44;1787431;79;21465;-58
2022/10/24 01:58:52;;;;;;;6.40;5.60;;;;;;;11.21;92.16;98249.26;1802837;79;21002;-58
2022/10/24 02:01:22;;;;;;;7.50;5.60;;;;;;;11.19;92.17;98246.64;1790079;79;20960;-58
2022/10/24 02:03:54;;;;;;;6.42;5.55;;;;;;;11.16;92.29;98245.86;1788097;79;21232;-59
2022/10/24 02:06:26;;;;;;;6.75;5.47;;;;;;;11.15;92.40;98249.62;1797859;79;21023;-58
2022/10/24 02:08:58;;;;;;;7.35;5.92;;;;;;;11.15;92.40;98260.34;1801525;78;21063;-59
2022/10/24 02:11:24;;;;;;;10.53;5.80;;;;;;;11.12;92.55;98251.52;1794457;79;20940;-58
2022/10/24 02:14:07;;;;;;;6.92;5.70;;;;;;;11.12;92.71;98258.22;1795458;78;21572;-59
2022/10/24 02:16:33;;;;;;;7.55;5.85;;;;;;;11.11;92.74;98259.33;1800521;79;21237;-58
2022/10/24 02:19:01;;;;;;;7.45;5.97;;;;;;;11.11;92.78;98260.12;1776748;79;21429;-58
2022/10/24 02:21:52;;;;;;;6.28;5.55;;;;;;;11.10;92.86;98254.50;1781026;79;20907;-59
2022/10/24 02:24:25;;;;;;;6.92;6.22;;;;;;;11.13;93.01;98260.64;1785319;79;20919;-59
2022/10/24 02:27:14;;;;;;;6.83;6.05;;;;;;;11.14;93.05;98260.10;1783926;79;20988;-58
2022/10/24 02:30:01;;;;;;;6.92;5.58;;;;;;;11.16;93.04;98257.92;1792890;79;21119;-59
2022/10/24 02:32:35;;;;;;;8.88;6.25;;;;;;;11.16;93.08;98256.59;1803749;79;20967;-58
2022/10/24 02:35:02;;;;;;;7.47;5.80;;;;;;;11.15;93.03;98250.95;1792293;79;21408;-59
2022/10/24 02:37:30;;;;;;;7.15;6.00;;;;;;;11.15;93.05;98252.30;1791603;78;20932;-59
2022/10/24 02:39:56;;;;;;;8.10;6.03;;;;;;;11.14;93.04;98246.70;1781919;78;20915;-59
2022/10/24 02:42:24;;;;;;;6.25;5.65;;;;;;;11.14;93.05;98254.73;1776697;80;21232;-59
2022/10/24 02:44:51;;;;;;;5.72;5.05;;;;;;;11.09;93.05;98247.56;1785447;79;21392;-59
2022/10/24 02:47:18;;;;;;;8.15;6.25;;;;;;;11.07;93.19;98252.95;1794516;79;21018;-59
2022/10/24 02:49:45;;;;;;;7.17;5.70;;;;;;;11.04;93.34;98251.64;1800606;78;20976;-59
2022/10/24 02:52:12;;;;;;;8.35;6.25;;;;;;;11.03;93.46;98252.70;1796698;78;21403;-59
2022/10/24 02:54:39;;;;;;;7.50;5.85;;;;;;;11.03;93.53;98256.73;1802567;79;21272;-59
2022/10/24 02:57:06;;;;;;;8.63;6.08;;;;;;;11.00;93.59;98256.76;1776420;80;21062;-59
2022/10/24 02:59:33;;;;;;;6.75;5.80;;;;;;;11.00;93.72;98255.42;1796020;79;20892;-59
2022/10/24 03:02:01;;;;;;;8.35;6.28;;;;;;;10.98;93.83;98254.91;1780790;79;21403;-59
2022/10/24 03:04:30;;;;;;;8.30;6.10;;;;;;;10.97;93.94;98245.27;1790823;79;20907;-59
2022/10/24 03:06:56;;;;;;;7.33;6.22;;;;;;;10.98;93.91;98248.20;1785701;79;21232;-59
2022/10/24 03:09:25;;;;;;;6.00;5.40;;;;;;;10.96;93.94;98249.05;1791454;79;20893;-59
2022/10/24 03:11:51;;;;;;;7.03;5.72;;;;;;;10.93;93.95;98241.56;1791624;79;21108;-58
2022/10/24 03:14:19;;;;;;;7.28;5.87;;;;;;;10.90;94.02;98234.09;1785413;79;21510;-59
2022/10/24 03:16:46;;;;;;;6.92;6.12;;;;;;;10.88;94.41;98235.48;1801499;78;21394;-59
2022/10/24 03:19:13;;;;;;;7.17;6.22;;;;;;;10.88;94.53;98230.91;1776638;79;21187;-59
2022/10/24 03:21:41;;;;;;;6.60;5.85;;;;;;;10.90;94.55;98232.75;1787185;79;21371;-59
2022/10/24 03:24:08;;;;;;;6.42;5.78;;;;;;;10.88;94.52;98233.58;1783158;79;20840;-59
2022/10/24 03:26:37;;;;;;;6.85;6.15;;;;;;;10.89;94.60;98235.73;1792966;79;20939;-59
2022/10/24 03:29:05;;;;;;;7.75;6.28;;;;;;;10.88;94.62;98238.94;1786692;79;21457;-59
2022/10/24 03:31:31;;;;;;;6.53;5.92;;;;;;;10.88;94.79;98242.96;1787253;79;21361;-59
2022/10/24 03:33:58;;;;;;;8.33;7.00;;;;;;;10.89;94.83;98244.56;1793161;79;20853;-59
2022/10/24 03:36:25;;;;;;;8.83;7.83;;;;;;;10.91;94.87;98246.95;1791464;79;21677;-59
2022/10/24 03:38:52;;;;;;;10.03;7.08;;;;;;;10.93;94.85;98246.92;1806796;79;21512;-59
2022/10/24 03:41:19;;;;;;;9.68;6.58;;;;;;;10.96;94.84;98247.70;1791727;78;20915;-59
2022/10/24 03:43:47;;;;;;;8.13;5.97;;;;;;;11.00;94.82;98243.36;1795442;79;22007;-59
2022/10/24 03:46:15;;;;;;;6.67;5.90;;;;;;;11.05;94.82;98251.07;1785325;79;20833;-59
2022/10/24 03:48:42;;;;;;;6.60;5.90;;;;;;;11.06;94.81;98243.30;1787176;79;21400;-59
2022/10/24 03:51:09;;;;;;;6.60;5.90;;;;;;;11.09;94.79;98234.69;1783954;79;20892;-58
2022/10/24 03:53:36;;;;;;;8.20;6.75;;;;;;;11.14;94.64;98241.34;1792986;79;20888;-59
2022/10/24 03:56:03;;;;;;;7.72;6.10;;;;;;;11.15;94.46;98232.99;1795273;79;21481;-59
2022/10/24 03:58:29;;;;;;;7.37;6.22;;;;;;;11.17;94.29;98238.06;1806854;79;21407;-59
2022/10/24 04:00:57;;;;;;;8.15;6.30;;;;;;;11.15;94.32;98242.38;1787022;78;20971;-59
2022/10/24 04:03:25;;;;;;;7.78;6.00;;;;;;;11.14;94.29;98240.00;1782091;79;21561;-59
2022/10/24 04:05:52;;;;;;;7.50;6.25;;;;;;;11.11;94.28;98245.39;1807450;79;20963;-59
2022/10/24 04:08:20;;;;;;;8.08;5.92;;;;;;;11.10;94.39;98236.27;1785224;79;21107;-59
2022/10/24 04:10:48;;;;;;;6.55;5.92;;;;;;;11.10;94.44;98239.75;1777842;79;20916;-59
2022/10/24 04:13:16;;;;;;;7.90;6.70;;;;;;;11.12;94.40;98244.81;1789211;79;21334;-59
2022/10/24 04:15:43;;;;;;;8.40;6.37;;;;;;;11.12;94.35;98242.14;1785610;79;20848;-59
2022/10/24 04:18:10;;;;;;;7.53;6.40;;;;;;;11.14;94.42;98250.72;1794414;79;20901;-59
2022/10/24 04:20:37;;;;;;;7.22;6.30;;;;;;;11.17;94.36;98251.46;1785454;79;21172;-59
2022/10/24 04:23:03;;;;;;;7.85;5.83;;;;;;;11.19;94.30;98243.95;1791459;79;20872;-59
2022/10/24 04:25:30;;;;;;;6.97;5.62;;;;;;;11.20;94.28;98241.52;1776549;79;20919;-60
2022/10/24 04:27:57;;;;;;;8.83;6.15;;;;;;;11.24;94.28;98249.23;1788863;79;21050;-59
2022/10/24 04:30:25;;;;;;;8.78;5.95;;;;;;;11.26;94.27;98247.08;1791154;79;20984;-59
2022/10/24 04:32:52;;;;;;;6.60;5.80;;;;;;;11.29;94.26;98239.78;1776484;79;21105;-59
2022/10/24 04:35:20;;;;;;;7.03;6.33;;;;;;;11.32;94.11;98241.36;1789346;79;20982;-59
2022/10/24 04:37:46;;;;;;;6.30;5.67;;;;;;;11.36;93.92;98242.91;1795199;79;20876;-59
2022/10/24 04:40:13;;;;;;;6.30;5.70;;;;;;;11.38;93.86;98242.88;1782617;79;20900;-59
2022/10/24 04:42:40;;;;;;;8.70;5.90;;;;;;;11.42;93.80;98243.88;1799021;79;20996;-59
2022/10/24 04:45:09;;;;;;;6.50;5.80;;;;;;;11.46;93.73;98244.11;1800680;79;21232;-59
2022/10/24 04:47:35;;;;;;;6.50;5.78;;;;;;;11.51;93.39;98244.85;1778985;79;21520;-59
2022/10/24 04:50:03;;;;;;;6.30;5.70;;;;;;;11.54;93.34;98246.94;1784491;79;20991;-59
2022/10/24 04:52:30;;;;;;;6.10;5.50;;;;;;;11.56;93.16;98249.34;1776927;79;21003;-59
2022/10/24 04:54:56;;;;;;;9.40;6.00;;;;;;;11.57;92.98;98246.90;1791681;79;21097;-59
2022/10/24 04:57:23;;;;;;;6.50;5.80;;;;;;;11.58;92.90;98241.27;1785293;79;21077;-61
2022/10/24 04:59:50;;;;;;;8.60;6.33;;;;;;;11.61;92.81;98238.55;1791333;79;21043;-59
2022/10/24 05:02:16;;;;;;;6.90;6.05;;;;;;;11.63;92.65;98238.48;1794220;79;21487;-59
2022/10/24 05:04:43;;;;;;;6.53;5.65;;;;;;;11.64;92.58;98238.75;1793497;79;20896;-59
2022/10/24 05:07:10;;;;;;;6.33;5.20;;;;;;;11.65;92.39;98246.27;1783398;79;20860;-59
2022/10/24 05:09:37;;;;;;;9.50;5.80;;;;;;;11.65;92.37;98243.58;1787228;79;21106;-59
2022/10/24 05:12:05;;;;;;;6.20;5.50;;;;;;;11.66;92.36;98245.16;1812063;78;20998;-59
2022/10/24 05:14:33;;;;;;;7.65;5.62;;;;;;;11.68;92.25;98253.77;1805926;78;20962;-59
2022/10/24 05:17:03;;;;;;;8.23;5.97;;;;;;;11.72;92.00;98254.77;1813647;77;21035;-59
2022/10/24 05:19:38;;;;;;;7.78;5.70;;;;;;;11.73;92.01;98251.55;1820531;77;21375;-59
2022/10/24 05:22:08;;;;;;;7.58;5.28;;;;;;;11.74;91.84;98257.95;1764158;79;21194;-59
2022/10/24 05:24:34;;;;;;;5.95;5.35;;;;;;;11.75;91.64;98254.20;1736654;80;20999;-59
2022/10/24 05:27:01;;;;;;;7.28;5.62;;;;;;;11.76;91.56;98249.06;1812388;77;21025;-59
2022/10/24 05:29:29;;;;;;;7.17;5.50;;;;;;;11.78;91.45;98246.89;1820059;77;21124;-57
2022/10/24 05:31:56;;;;;;;6.30;5.17;;;;;;;11.80;91.35;98250.64;1801196;77;20918;-58
2022/10/24 05:34:24;;;;;;;5.70;5.10;;;;;;;11.80;91.28;98244.70;1797984;78;21223;-58
2022/10/24 05:36:54;;;;;;;7.97;5.20;;;;;;;11.82;91.26;98254.63;1813097;77;21051;-59
2022/10/24 05:39:21;;;;;;;7.05;5.30;;;;;;;11.84;91.22;98254.33;1808873;77;21494;-58
2022/10/24 05:41:48;;;;;;;5.78;5.25;;;;;;;11.85;91.12;98256.70;1808821;77;21032;-58
2022/10/24 05:44:18;;;;;;;8.63;5.72;;;;;;;11.87;91.15;98246.48;1810325;77;21025;-58
2022/10/24 05:46:50;;;;;;;6.45;5.60;;;;;;;11.88;91.15;98245.40;1823917;77;21110;-58
2022/10/24 05:49:20;;;;;;;6.47;5.53;;;;;;;11.90;91.06;98257.98;1808416;77;21082;-58
2022/10/24 05:51:48;;;;;;;5.80;4.85;;;;;;;11.92;91.08;98255.80;1796122;77;21134;-58
2022/10/24 05:54:19;;;;;;;6.15;5.12;;;;;;;11.95;91.00;98253.88;1826890;77;21078;-58
2022/10/24 05:56:51;;;;;;;5.53;4.72;;;;;;;12.00;91.08;98261.86;1813110;77;21110;-59
2022/10/24 05:59:19;;;;;;;5.15;4.65;;;;;;;12.02;90.91;98251.62;1805167;77;22209;-59
2022/10/24 06:01:51;;;;;;;8.15;5.17;;;;;;;12.08;90.75;98262.52;1804575;77;20937;-59
2022/10/24 06:04:23;;;;;;;6.08;4.95;;;;;;;12.10;90.61;98264.92;1749227;80;21092;-59
2022/10/24 06:06:51;;;;;;;6.53;4.70;;;;;;;12.12;90.48;98258.72;1760541;80;21124;-60
2022/10/24 06:09:18;;;;;;;5.37;4.70;;;;;;;12.14;90.48;98265.39;1807140;77;21049;-59
2022/10/24 06:11:47;;;;;;;5.20;4.67;;;;;;;12.18;90.48;98255.64;1807893;77;21956;-61
2022/10/24 06:14:18;;;;;;;8.00;5.00;;;;;;;12.21;90.34;98255.06;1795403;78;21643;-59
2022/10/24 06:16:45;;;;;;;5.83;5.05;;;;;;;12.24;90.08;98253.69;1803536;77;21041;-59
2022/10/24 06:19:12;;;;;;;5.12;4.10;;;;;;;12.26;89.97;98253.64;1807265;77;21105;-60
2022/10/24 06:21:44;;;;;;;6.00;4.60;;;;;;;12.27;89.82;98261.16;1819825;77;21622;-59
2022/10/24 06:24:20;;;;;;;5.97;4.00;;;;;;;12.30;89.72;98264.04;1789954;78;20964;-60
2022/10/24 06:26:47;;;;;;;5.45;4.35;;;;;;;12.34;89.68;98261.01;1800622;78;21506;-60
2022/10/24 06:29:14;;;;;;;5.12;4.62;;;;;;;12.39;89.54;98264.72;1798017;77;21051;-60
2022/10/24 06:31:43;;;;;;;5.60;4.87;;;;;;;12.44;89.33;98257.35;1819054;77;21006;-59
2022/10/24 06:34:13;;;;;;;6.37;4.40;;;;;;;12.47;89.29;98262.69;1794269;77;21055;-59
2022/10/24 06:36:41;;;;;;;4.92;4.42;;;;;;;12.48;89.15;98262.95;1813285;77;21268;-60
2022/10/24 06:39:08;;;;;;;5.20;3.98;;;;;;;12.48;89.18;98261.60;1781157;79;21026;-60
2022/10/24 06:41:35;;;;;;;5.62;4.15;;;;;;;12.50;89.07;98261.56;1813711;78;20987;-59
2022/10/24 06:44:02;;;;;;;4.72;4.20;;;;;;;12.51;88.83;98252.93;1813856;77;20927;-59
2022/10/24 06:46:29;;;;;;;4.50;4.10;;;;;;;12.53;88.87;98256.92;1810124;77;21043;-59
2022/10/24 06:48:56;;;;;;;4.92;4.42;;;;;;;12.59;88.79;98257.63;1804452;77;22028;-58
2022/10/24 06:51:31;;;;;;;6.35;4.37;;;;;;;12.64;88.73;98262.92;1818622;77;21132;-58
2022/10/24 06:54:01;;;;;;;5.28;4.58;;;;;;;12.71;88.51;98268.70;1799464;77;20949;-58
2022/10/24 06:56:29;;;;;;;6.10;3.98;;;;;;;12.78;88.37;98264.53;1802456;78;21067;-59
2022/10/24 06:58:58;;;;;;;4.40;3.77;;;;;;;12.86;88.12;98263.02;1805280;78;21067;-60
2022/10/24 07:01:30;;;;;;;4.95;4.30;;;;;;;12.96;87.96;98257.45;1778493;79;21071;-59
2022/10/24 07:03:59;;;;;;;4.80;4.12;;;;;;;13.09;87.41;98262.09;1808090;79;20967;-59
2022/10/24 07:06:29;;;;;;;6.80;5.15;;;;;;;13.20;86.93;98257.28;1812811;78;21038;-59
2022/10/24 07:08:57;;;;;;;7.65;6.22;;;;;;;13.27;86.67;98255.78;1810077;77;20926;-59
2022/10/24 07:11:25;;;;;;;7.80;6.85;;;;;;;13.34;86.54;98258.86;1799128;77;21442;-58
2022/10/24 07:13:57;;;;;;;8.68;5.80;;;;;;;13.45;86.14;98262.13;1789556;77;22514;-59
2022/10/24 07:16:29;;;;;;;7.40;5.90;;;;;;;13.51;85.28;98263.63;1819461;77;21072;-60
2022/10/24 07:19:03;;;;;;;6.40;5.80;;;;;;;13.51;84.85;98265.77;1815289;77;21061;-60
2022/10/24 07:21:34;;;;;;;7.90;6.53;;;;;;;13.52;84.44;98265.20;1820104;77;21081;-60
2022/10/24 07:24:09;;;;;;;8.30;7.20;;;;;;;13.46;83.98;98261.84;1798730;77;20937;-60
2022/10/24 07:26:38;;;;;;;12.68;7.55;;;;;;;13.40;83.99;98264.95;1807631;77;21092;-60
2022/10/24 07:29:09;;;;;;;9.55;7.17;;;;;;;13.34;83.88;98266.13;1786389;77;20867;-60
2022/10/24 07:31:40;;;;;;;7.12;6.20;;;;;;;13.29;83.81;98260.31;1813659;77;21063;-59
2022/10/24 07:39:17;;;;;;;9.83;6.22;;;;;;;13.27;83.91;98261.17;1797917;77;21580;-58
2022/10/24 07:41:44;;;;;;;8.98;6.40;;;;;;;13.31;83.71;98256.77;1804906;77;20959;-60
2022/10/24 07:44:11;;;;;;;11.43;9.70;;;;;;;13.37;83.70;98254.23;1806327;77;21305;-61
2022/10/24 07:46:39;;;;;;;8.58;7.22;;;;;;;13.46;83.37;98255.66;1814586;78;21059;-60
2022/10/24 07:49:08;;;;;;;6.05;5.40;;;;;;;13.53;83.35;98250.11;1831727;77;20993;-59
2022/10/24 07:51:37;;;;;;;5.75;4.87;;;;;;;13.60;83.04;98250.50;1799250;77;22028;-59
2022/10/24 07:54:06;;;;;;;6.33;4.95;;;;;;;13.64;82.70;98258.20;1819236;77;21003;-61
2022/10/24 07:56:36;;;;;;;5.10;4.25;;;;;;;13.69;82.88;98254.05;1816569;77;32459;-58
2022/10/24 07:59:02;;;;;;;7.37;5.05;;;;;;;13.77;82.57;98255.78;1811880;78;21498;-59
2022/10/24 08:01:29;;;;;;;7.35;5.50;;;;;;;13.81;82.46;98260.80;1808296;77;21117;-60
2022/10/24 08:03:58;;;;;;;5.53;4.95;;;;;;;13.86;82.41;98257.98;1796412;78;21219;-60
2022/10/24 08:06:30;;;;;;;7.25;5.12;;;;;;;13.92;82.05;98246.02;1798119;78;21473;-61
2022/10/24 08:08:58;;;;;;;5.58;4.60;;;;;;;13.96;81.68;98248.33;1809854;77;21521;-60
2022/10/24 08:11:26;;;;;;;6.58;4.83;;;;;;;13.98;81.68;98243.43;1809157;78;20995;-59
2022/10/24 08:13:53;;;;;;;6.55;4.75;;;;;;;14.04;81.52;98236.27;1811500;77;20928;-59
2022/10/24 08:16:22;;;;;;;5.92;5.28;;;;;;;14.08;80.97;98238.61;1810466;77;21672;-60
2022/10/24 08:18:53;;;;;;;8.18;5.00;;;;;;;14.15;80.62;98226.86;1813705;77;21002;-60
2022/10/24 08:21:20;;;;;;;7.20;5.28;;;;;;;14.17;80.70;98225.99;1815562;77;20954;-60
2022/10/24 08:23:51;;;;;;;7.00;4.95;;;;;;;14.25;80.56;98227.13;1792341;78;21046;-61
2022/10/24 08:26:20;;;;;;;7.42;5.17;;;;;;;14.31;80.34;98220.01;1807122;77;20991;-62
2022/10/24 08:28:47;;;;;;;7.55;4.95;;;;;;;14.36;80.16;98224.47;1802216;77;21227;-64
2022/10/24 08:31:20;;;;;;;7.30;4.25;;;;;;;14.44;79.85;98214.27;1813089;77;20999;-60
2022/10/24 08:33:50;;;;;;;6.60;5.05;;;;;;;14.55;79.69;98219.66;1801071;78;21002;-61
2022/10/24 08:36:27;;;;;;;8.65;4.80;;;;;;;14.67;79.55;98225.81;1798329;77;21082;-60
2022/10/24 08:38:53;;;;;;;6.28;4.53;;;;;;;14.83;79.06;98224.28;1798210;77;21501;-60
2022/10/24 08:41:32;;;;;;;7.33;4.37;;;;;;;14.98;78.78;98215.75;1801272;77;21253;-62
2022/10/24 08:44:01;;;;;;;6.58;4.80;;;;;;;15.07;78.16;98215.25;1778327;77;21010;-61
2022/10/24 08:46:53;;;;;;;5.22;4.22;;;;;;;15.11;77.89;98215.41;1808303;77;20868;-61
2022/10/24 08:49:41;;;;;;;5.15;4.65;;;;;;;15.15;77.68;98212.31;1800781;78;20897;-61
2022/10/24 08:52:36;;;;;;;6.05;4.50;;;;;;;15.18;77.25;98206.30;1794193;77;21568;-60
2022/10/24 08:55:08;;;;;;;10.28;6.17;;;;;;;15.29;77.26;98212.42;1798453;77;21681;-63
2022/10/24 08:57:35;;;;;;;7.70;4.70;;;;;;;15.46;76.91;98203.04;1797107;77;21019;-61
2022/10/24 09:00:10;;;;;;;4.62;3.60;;;;;;;15.59;75.90;98199.95;1814820;77;20949;-60
2022/10/24 09:02:38;;;;;;;4.00;3.60;;;;;;;15.68;75.23;98205.60;1807088;77;20959;-63
2022/10/24 09:05:28;;;;;;;4.97;3.65;;;;;;;15.67;74.55;98194.55;1794737;77;21051;-61
2022/10/24 09:08:00;;;;;;;4.17;3.35;;;;;;;15.61;73.98;98193.13;1809343;77;21680;-61
2022/10/24 09:10:48;;;;;;;5.10;3.95;;;;;;;15.49;73.70;98196.22;1815257;78;21071;-61
2022/10/24 09:13:17;;;;;;;6.55;4.47;;;;;;;15.36;73.58;98190.36;1741762;81;21008;-61
2022/10/24 09:15:45;;;;;;;7.28;4.00;;;;;;;15.23;74.44;98189.96;1723782;80;21499;-61
2022/10/24 09:18:37;;;;;;;6.58;4.03;;;;;;;15.21;74.86;98190.28;1735575;81;21139;-62
2022/10/24 09:21:06;;;;;;;3.60;3.15;;;;;;;15.20;75.13;98195.98;1730606;80;21180;-61
2022/10/24 09:23:35;;;;;;;8.15;3.55;;;;;;;15.22;75.30;98193.75;1732470;80;21098;-63
2022/10/24 09:26:05;;;;;;;6.12;3.58;;;;;;;15.23;75.11;98192.11;1738595;80;20999;-62
2022/10/24 09:28:35;;;;;;;4.22;3.58;;;;;;;15.24;75.28;98194.26;1762819;80;20987;-63
2022/10/24 09:31:17;;;;;;;6.28;3.30;;;;;;;15.22;75.47;98186.46;1739710;80;20898;-61
2022/10/24 09:33:47;;;;;;;5.87;4.28;;;;;;;15.22;75.29;98184.31;1732604;80;21093;-62
2022/10/24 09:36:16;;;;;;;3.80;3.10;;;;;;;15.23;75.69;98181.86;1727495;80;21033;-61
2022/10/24 09:38:45;;;;;;;4.62;3.80;;;;;;;15.32;75.55;98178.62;1732544;81;21070;-60
2022/10/24 09:41:20;;;;;;;4.62;4.15;;;;;;;15.42;75.40;98176.97;1789184;77;20955;-60
2022/10/24 09:43:53;;;;;;;12.33;8.85;;;;;;;15.50;75.34;98173.49;1816870;77;21499;-64
2022/10/24 09:46:27;;;;;;;8.03;5.75;;;;;;;15.61;75.40;98170.19;1804206;77;21205;-63
2022/10/24 09:48:57;;;;;;;4.20;3.45;;;;;;;15.77;74.99;98165.63;1808574;77;21143;-63
2022/10/24 09:52:03;;;;;;;3.45;3.10;;;;;;;15.89;74.30;98168.48;1806758;77;21079;-61
2022/10/24 09:54:31;;;;;;;3.40;3.08;;;;;;;15.92;74.37;98172.67;1816197;77;21047;-61
2022/10/24 09:57:12;;;;;;;3.95;3.00;;;;;;;15.95;73.88;98173.39;1806322;77;21089;-60
2022/10/24 09:59:44;;;;;;;3.52;3.00;;;;;;;15.97;73.08;98179.84;1806692;77;22689;-61
2022/10/24 10:02:26;;;;;;;3.65;2.80;;;;;;;15.90;73.04;98177.60;1800924;77;21063;-59
2022/10/24 10:05:07;;;;;;;4.00;2.30;;;;;;;15.91;73.32;98191.91;1821859;77;20994;-58
2022/10/24 10:07:40;;;;;;;5.05;3.60;;;;;;;15.90;72.33;98191.11;1812635;77;21103;-61
2022/10/24 10:10:33;;;;;;;9.88;2.98;;;;;;;15.96;72.08;98187.14;1797915;78;21039;-59
2022/10/24 10:13:23;;;;;;;8.43;6.90;;;;;;;16.06;72.09;98171.93;1811011;78;21065;-62
2022/10/24 10:15:58;;;;;;;5.25;3.42;;;;;;;16.18;72.32;98172.06;1820244;77;20857;-63
2022/10/24 10:18:42;;;;;;;3.30;2.17;;;;;;;16.32;71.65;98167.26;1803147;78;21570;-63
2022/10/24 10:21:16;;;;;;;3.67;2.60;;;;;;;16.41;70.75;98151.83;1802573;77;21042;-62
2022/10/24 10:23:54;;;;;;;5.92;3.10;;;;;;;16.49;70.76;98144.01;1809351;77;21578;-61
2022/10/24 10:26:44;;;;;;;5.00;3.55;;;;;;;16.54;70.30;98137.08;1820503;78;21062;-61
2022/10/24 10:29:22;;;;;;;4.55;3.72;;;;;;;16.51;69.56;98141.22;1825879;77;21002;-60
2022/10/24 10:32:10;;;;;;;7.08;3.20;;;;;;;16.47;69.72;98150.27;1806881;77;20948;-60
2022/10/24 10:34:39;;;;;;;3.40;2.90;;;;;;;16.47;69.36;98147.56;1802443;77;21024;-61
2022/10/24 10:37:28;;;;;;;3.02;2.15;;;;;;;16.48;69.37;98145.11;1797639;78;20916;-63
2022/10/24 10:40:40;;;;;;;3.10;2.20;;;;;;;16.52;68.12;98146.88;1809417;77;21227;-65
2022/10/24 10:43:40;;;;;;;4.22;2.67;;;;;;;16.50;67.88;98146.93;1778284;78;21010;-62
2022/10/24 10:46:45;;;;;;;3.42;2.47;;;;;;;16.42;68.06;98152.05;1818216;77;21491;-62
2022/10/24 10:49:39;;;;;;;3.77;2.40;;;;;;;16.30;68.39;98145.72;1806034;79;21411;-60
2022/10/24 10:52:30;;;;;;;2.90;2.42;;;;;;;16.18;68.82;98142.34;1805450;78;20892;-63
2022/10/24 10:55:29;;;;;;;4.45;2.62;;;;;;;16.10;69.51;98158.04;1792155;78;21239;-60
2022/10/24 10:58:20;;;;;;;5.12;3.30;;;;;;;16.06;69.92;98150.90;1788014;79;20872;-63
2022/10/24 11:01:15;;;;;;;3.45;2.98;;;;;;;16.09;70.33;98153.73;1808409;77;21024;-62
2022/10/24 11:04:06;;;;;;;4.05;2.37;;;;;;;16.19;70.89;98156.10;1792583;78;21042;-62
2022/10/24 11:06:45;;;;;;;2.72;2.30;;;;;;;16.27;70.29;98135.00;1799523;77;21505;-61
2022/10/24 11:09:37;;;;;;;3.45;2.60;;;;;;;16.31;69.34;98132.45;1803878;77;21238;-61
2022/10/24 11:12:17;;;;;;;4.75;2.60;;;;;;;16.32;69.28;98125.36;1751967;79;21006;-62
2022/10/24 11:14:57;;;;;;;4.42;2.70;;;;;;;16.30;68.89;98134.36;1767943;79;20963;-60
2022/10/24 11:17:49;;;;;;;4.30;2.65;;;;;;;16.26;69.05;98133.43;1772644;79;21010;-60
2022/10/24 11:20:31;;;;;;;5.62;3.80;;;;;;;16.19;69.09;98133.13;1762929;80;20874;-60
2022/10/24 11:23:15;;;;;;;10.90;8.55;;;;;;;16.11;69.49;98136.64;1773258;79;21514;-61
2022/10/24 11:25:53;;;;;;;7.33;5.10;;;;;;;16.07;69.19;98135.70;1809763;77;21576;-61
2022/10/24 11:28:35;;;;;;;4.80;3.25;;;;;;;16.03;68.97;98135.33;1815831;77;20903;-60
2022/10/24 11:31:16;;;;;;;4.85;3.10;;;;;;;15.96;69.16;98130.97;1813641;77;20880;-61
2022/10/24 11:33:57;;;;;;;4.85;3.00;;;;;;;15.90;69.18;98130.34;1798153;77;21008;-63
2022/10/24 11:36:48;;;;;;;4.15;3.20;;;;;;;15.86;69.57;98130.75;1802989;77;21248;-61
2022/10/24 11:39:24;;;;;;;4.97;3.50;;;;;;;15.89;70.06;98135.52;1808533;78;21054;-62
2022/10/24 11:42:26;;;;;;;5.58;3.45;;;;;;;15.94;70.12;98129.95;1803043;78;21496;-63
2022/10/24 11:45:07;;;;;;;4.58;3.60;;;;;;;15.93;69.63;98129.70;1812075;77;20999;-63
2022/10/24 11:48:12;;;;;;;6.70;3.62;;;;;;;15.87;70.07;98121.55;1803496;78;21039;-61
2022/10/24 11:51:05;;;;;;;5.70;3.75;;;;;;;15.83;70.10;98113.06;1750064;80;21211;-61
2022/10/24 11:53:49;;;;;;;7.60;5.42;;;;;;;15.77;70.46;98098.92;1706640;80;21656;-61
2022/10/24 11:56:42;;;;;;;10.93;7.45;;;;;;;15.79;70.88;98083.19;1773337;79;21514;-61
2022/10/24 11:59:24;;;;;;;9.50;5.40;;;;;;;15.84;71.00;98082.22;1750888;80;21151;-61
2022/10/24 12:02:26;;;;;;;7.90;5.85;;;;;;;15.88;70.79;98088.00;1752457;80;20920;-62
2022/10/24 12:05:26;;;;;;;8.90;4.83;;;;;;;15.87;70.86;98089.13;1780608;79;21460;-61
2022/10/24 12:08:25;;;;;;;15.25;7.22;;;;;;;15.86;71.14;98094.84;1751893;79;21515;-63
2022/10/24 12:11:21;;;;;;;11.88;6.17;;;;;;;15.83;71.63;98093.57;1796562;77;20965;-62